createdAt,value
2019-05-19T00:00:49.931Z,6.4
2019-05-19T00:02:50.035Z,6.4
2019-05-19T00:04:49.528Z,6.5
2019-05-19T00:06:49.789Z,6.5
2019-05-19T00:08:49.878Z,6.7
2019-05-19T00:10:49.944Z,7.2
2019-05-19T00:12:50.007Z,6.6
2019-05-19T00:14:49.974Z,6.6
2019-05-19T00:16:50.234Z,7.2
2019-05-19T00:18:50.259Z,6.7
2019-05-19T00:20:50.241Z,6.8
2019-05-19T00:22:50.276Z,6.9
2019-05-19T00:24:50.302Z,6.9
2019-05-19T00:26:49.471Z,6.9
2019-05-19T00:28:50.434Z,6.9
2019-05-19T00:30:49.460Z,7.3
2019-05-19T00:32:49.515Z,7.8
2019-05-19T00:34:50.119Z,7.8
2019-05-19T00:36:50.307Z,7.1
2019-05-19T00:38:50.444Z,7.4
2019-05-19T00:40:49.458Z,7.7
2019-05-19T00:42:49.533Z,7.7
2019-05-19T00:44:49.575Z,7.7
2019-05-19T00:46:49.713Z,8.2
2019-05-19T00:48:49.776Z,8.0
2019-05-19T00:50:49.850Z,8.1
2019-05-19T00:52:49.855Z,8.4
2019-05-19T00:54:49.918Z,8.4
2019-05-19T00:56:50.204Z,9.3
2019-05-19T00:58:50.273Z,8.7
2019-05-19T01:00:50.256Z,9.3
2019-05-19T01:02:50.326Z,9.3
2019-05-19T01:04:49.647Z,9.3
2019-05-19T01:06:49.868Z,9.0
2019-05-19T01:08:49.920Z,8.9
2019-05-19T01:10:49.981Z,8.9
2019-05-19T01:12:50.041Z,8.9
2019-05-19T01:14:50.398Z,9.0
2019-05-19T01:16:49.605Z,9.2
2019-05-19T01:18:49.753Z,9.5
2019-05-19T01:20:49.842Z,9.5
2019-05-19T01:22:49.920Z,10.1
2019-05-19T01:24:49.905Z,9.7
2019-05-19T01:26:50.262Z,9.7
2019-05-19T01:28:50.306Z,10.9
2019-05-19T01:30:50.370Z,10.9
2019-05-19T01:32:49.592Z,10.6
2019-05-19T01:34:49.993Z,11.0
2019-05-19T01:36:50.266Z,11.6
2019-05-19T01:38:50.352Z,11.6
2019-05-19T01:40:50.399Z,11.6
2019-05-19T01:42:49.602Z,11.7
2019-05-19T01:44:49.601Z,11.6
2019-05-19T01:46:49.766Z,12.3
2019-05-19T01:48:49.761Z,12.0
2019-05-19T01:50:49.753Z,12.0
2019-05-19T01:52:49.804Z,12.4
2019-05-19T01:54:50.216Z,11.9
2019-05-19T01:56:49.510Z,12.5
2019-05-19T01:58:49.516Z,12.5
2019-05-19T02:00:49.702Z,13.1
2019-05-19T02:02:49.763Z,13.5
2019-05-19T02:04:50.177Z,13.4
2019-05-19T02:06:50.295Z,12.7
2019-05-19T02:08:50.434Z,12.7
2019-05-19T02:10:49.473Z,12.7
2019-05-19T02:12:49.476Z,12.9
2019-05-19T02:14:49.581Z,12.8
2019-05-19T02:16:49.875Z,12.7
2019-05-19T02:18:49.917Z,12.8
2019-05-19T02:20:50.045Z,12.8
2019-05-19T02:22:50.148Z,13.2
2019-05-19T02:24:50.240Z,13.3
2019-05-19T02:26:50.379Z,13.3
2019-05-19T02:28:50.402Z,13.0
2019-05-19T02:30:49.471Z,14.1
2019-05-19T02:32:49.521Z,13.4
2019-05-19T02:34:50.005Z,13.7
2019-05-19T02:36:50.256Z,13.4
2019-05-19T02:38:50.241Z,13.4
2019-05-19T02:40:50.390Z,13.2
2019-05-19T02:42:50.372Z,13.2
2019-05-19T02:44:49.463Z,13.2
2019-05-19T02:46:49.738Z,12.8
2019-05-19T02:48:49.744Z,12.8
2019-05-19T02:50:52.538Z,13.2
2019-05-19T02:52:50.219Z,13.6
2019-05-19T02:54:50.348Z,13.3
2019-05-19T02:56:49.576Z,13.3
2019-05-19T02:58:49.639Z,13.5
2019-05-19T03:00:49.699Z,13.3
2019-05-19T03:02:49.768Z,13.7
2019-05-19T03:04:50.157Z,13.7
2019-05-19T03:06:50.282Z,13.1
2019-05-19T03:08:50.361Z,13.1
2019-05-19T03:10:50.394Z,13.7
2019-05-19T03:12:49.451Z,13.9
2019-05-19T03:14:49.516Z,14.6
2019-05-19T03:16:49.847Z,14.6
2019-05-19T03:18:49.945Z,14.0
2019-05-19T03:20:49.991Z,13.9
2019-05-19T03:22:50.049Z,14.3
2019-05-19T03:24:50.086Z,15.0
2019-05-19T03:26:50.280Z,15.0
2019-05-19T03:28:50.304Z,14.4
2019-05-19T03:30:50.293Z,13.7
2019-05-19T03:32:49.894Z,14.2
2019-05-19T03:34:50.266Z,14.1
2019-05-19T03:36:50.432Z,14.1
2019-05-19T03:38:49.588Z,14.6
2019-05-19T03:40:49.666Z,14.4
2019-05-19T03:42:49.691Z,14.7
2019-05-19T03:44:49.787Z,14.0
2019-05-19T03:46:50.024Z,14.0
2019-05-19T03:48:50.197Z,14.8
2019-05-19T03:50:50.263Z,15.5
2019-05-19T03:52:50.410Z,15.3
2019-05-19T03:54:49.615Z,15.3
2019-05-19T03:56:49.752Z,13.9
2019-05-19T03:58:49.776Z,13.9
2019-05-19T04:00:49.886Z,13.9
2019-05-19T04:02:49.956Z,14.1
2019-05-19T04:04:50.315Z,14.1
2019-05-19T04:06:49.603Z,14.0
2019-05-19T04:08:49.635Z,13.7
2019-05-19T04:10:49.675Z,12.6
2019-05-19T04:12:49.754Z,12.3
2019-05-19T04:14:49.950Z,12.3
2019-05-19T04:16:50.207Z,12.0
2019-05-19T04:18:50.272Z,11.8
2019-05-19T04:20:50.331Z,11.5
2019-05-19T04:22:50.346Z,11.5
2019-05-19T04:24:50.461Z,11.5
2019-05-19T04:26:50.210Z,11.0
2019-05-19T04:28:50.338Z,11.8
2019-05-19T04:30:49.505Z,11.8
2019-05-19T04:32:49.547Z,11.6
2019-05-19T04:34:50.007Z,11.6
2019-05-19T04:36:50.285Z,11.5
2019-05-19T04:38:50.387Z,11.5
2019-05-19T04:40:50.424Z,11.0
2019-05-19T04:42:49.583Z,11.0
2019-05-19T04:44:49.648Z,12.3
2019-05-19T04:46:49.890Z,11.8
2019-05-19T04:48:49.988Z,11.6
2019-05-19T04:50:50.013Z,11.2
2019-05-19T04:52:50.110Z,11.2
2019-05-19T04:54:50.157Z,10.9
2019-05-19T04:56:50.403Z,10.9
2019-05-19T04:58:49.579Z,10.7
2019-05-19T05:00:49.568Z,10.9
2019-05-19T05:02:49.699Z,10.9
2019-05-19T05:04:50.170Z,12.6
2019-05-19T05:06:50.346Z,11.0
2019-05-19T05:08:50.358Z,12.1
2019-05-19T05:10:49.482Z,12.1
2019-05-19T05:12:49.535Z,11.3
2019-05-19T05:14:49.490Z,11.3
2019-05-19T05:16:49.678Z,11.1
2019-05-19T05:18:49.699Z,11.9
2019-05-19T05:20:49.710Z,12.1
2019-05-19T05:22:49.867Z,12.1
2019-05-19T05:24:50.003Z,12.1
2019-05-19T05:26:50.239Z,11.5
2019-05-19T05:28:50.255Z,11.5
2019-05-19T05:30:50.293Z,11.6
2019-05-19T05:32:50.284Z,11.8
2019-05-19T05:34:49.633Z,13.1
2019-05-19T05:36:49.689Z,13.6
2019-05-19T05:38:49.738Z,13.2
2019-05-19T05:40:49.733Z,13.2
2019-05-19T05:42:49.727Z,12.5
2019-05-19T05:44:49.853Z,12.5
2019-05-19T05:46:50.024Z,12.6
2019-05-19T05:48:50.073Z,12.6
2019-05-19T05:50:50.162Z,12.6
2019-05-19T05:52:50.156Z,12.9
2019-05-19T05:54:50.250Z,13.2
2019-05-19T05:56:50.423Z,13.2
2019-05-19T05:58:50.414Z,13.7
2019-05-19T06:00:49.511Z,13.7
2019-05-19T06:02:49.593Z,13.4
2019-05-19T06:04:50.135Z,13.7
2019-05-19T06:06:50.299Z,13.2
2019-05-19T06:08:50.315Z,13.8
2019-05-19T06:10:50.396Z,13.8
2019-05-19T06:12:49.435Z,16.2
2019-05-19T06:14:49.538Z,16.5
2019-05-19T06:16:49.808Z,16.5
2019-05-19T06:18:49.799Z,16.7
2019-05-19T06:20:49.887Z,16.7
2019-05-19T06:22:56.215Z,15.8
2019-05-19T06:24:50.388Z,15.9
2019-05-19T06:26:49.505Z,17.9
2019-05-19T06:28:49.583Z,17.9
2019-05-19T06:30:49.591Z,19.4
2019-05-19T06:32:49.566Z,19.1
2019-05-19T06:34:50.165Z,18.4
2019-05-19T06:36:50.422Z,19.0
2019-05-19T06:38:50.426Z,19.0
2019-05-19T06:40:49.585Z,19.3
2019-05-19T06:42:49.655Z,19.3
2019-05-19T06:44:49.765Z,19.4
2019-05-19T06:46:49.884Z,19.6
2019-05-19T06:48:49.967Z,19.6
2019-05-19T06:50:50.027Z,19.1
2019-05-19T06:52:50.103Z,18.6
2019-05-19T06:54:50.191Z,18.6
2019-05-19T06:56:50.328Z,18.6
2019-05-19T06:58:50.404Z,18.5
2019-05-19T07:00:49.575Z,17.6
2019-05-19T07:02:49.581Z,17.6
2019-05-19T07:04:50.192Z,18.3
2019-05-19T07:06:50.320Z,18.3
2019-05-19T07:08:49.548Z,18.0
2019-05-19T07:10:49.563Z,18.4
2019-05-19T07:12:49.767Z,18.0
2019-05-19T07:14:49.761Z,17.4
2019-05-19T07:16:49.978Z,17.4
2019-05-19T07:18:50.061Z,17.6
2019-05-19T07:20:50.139Z,17.7
2019-05-19T07:22:50.197Z,18.0
2019-05-19T07:24:50.212Z,18.0
2019-05-19T07:26:50.381Z,17.6
2019-05-19T07:28:50.420Z,18.3
2019-05-19T07:30:49.510Z,19.0
2019-05-19T07:32:49.584Z,18.6
2019-05-19T07:34:50.065Z,18.6
2019-05-19T07:36:50.182Z,18.5
2019-05-19T07:38:50.202Z,18.3
2019-05-19T07:40:50.181Z,18.5
2019-05-19T07:42:50.349Z,18.5
2019-05-19T07:44:50.393Z,18.1
2019-05-19T07:46:49.584Z,18.1
2019-05-19T07:48:49.617Z,18.2
2019-05-19T07:50:49.658Z,16.9
2019-05-19T07:52:49.725Z,16.9
2019-05-19T07:54:49.746Z,17.3
2019-05-19T07:56:49.992Z,17.3
2019-05-19T07:58:50.079Z,17.6
2019-05-19T08:00:50.122Z,16.8
2019-05-19T08:02:50.200Z,16.8
2019-05-19T08:04:49.636Z,15.9
2019-05-19T08:06:49.902Z,15.9
2019-05-19T08:08:49.932Z,15.9
2019-05-19T08:10:50.034Z,15.6
2019-05-19T08:12:50.075Z,15.8
2019-05-19T08:14:50.115Z,15.8
2019-05-19T08:16:50.284Z,15.8
2019-05-19T08:18:50.387Z,15.0
2019-05-19T08:20:49.531Z,15.2
2019-05-19T08:22:51.331Z,14.1
2019-05-19T08:24:49.628Z,14.1
2019-05-19T08:26:49.903Z,16.3
2019-05-19T08:28:50.005Z,15.7
2019-05-19T08:30:50.097Z,16.9
2019-05-19T08:32:50.201Z,16.9
2019-05-19T08:34:50.069Z,16.9
2019-05-19T08:36:50.215Z,18.5
2019-05-19T08:38:50.287Z,17.8
2019-05-19T08:40:50.438Z,17.2
2019-05-19T08:42:49.693Z,17.2
2019-05-19T08:44:49.744Z,16.6
2019-05-19T08:46:49.869Z,15.8
2019-05-19T08:48:50.016Z,15.7
2019-05-19T08:50:50.315Z,12.6
2019-05-19T08:52:50.387Z,12.8
2019-05-19T08:54:49.457Z,12.8
2019-05-19T08:56:49.601Z,13.6
2019-05-19T08:58:49.677Z,13.7
2019-05-19T09:00:49.743Z,13.1
2019-05-19T09:02:49.748Z,13.1
2019-05-19T09:04:50.251Z,12.0
2019-05-19T09:06:49.443Z,11.8
2019-05-19T09:08:49.549Z,14.6
2019-05-19T09:10:49.802Z,14.4
2019-05-19T09:12:49.872Z,14.4
2019-05-19T09:14:49.850Z,14.4
2019-05-19T09:16:50.035Z,14.7
2019-05-19T09:18:50.082Z,14.5
2019-05-19T09:20:50.160Z,15.0
2019-05-19T09:22:50.358Z,15.0
2019-05-19T09:24:50.409Z,14.8
2019-05-19T09:26:49.651Z,14.2
2019-05-19T09:28:49.641Z,12.9
2019-05-19T09:30:49.679Z,12.9
2019-05-19T09:32:49.700Z,12.9
2019-05-19T09:34:50.076Z,12.3
2019-05-19T09:36:50.223Z,12.3
2019-05-19T09:38:50.222Z,12.3
2019-05-19T09:40:50.193Z,9.6
2019-05-19T09:42:50.395Z,9.6
2019-05-19T09:44:50.495Z,9.5
2019-05-19T09:46:50.172Z,8.8
2019-05-19T09:48:50.219Z,8.8
2019-05-19T09:50:50.362Z,9.4
2019-05-19T09:52:50.352Z,9.4
2019-05-19T09:54:50.377Z,8.6
2019-05-19T09:56:49.600Z,8.9
2019-05-19T09:58:49.653Z,8.7
2019-05-19T10:00:49.758Z,9.4
2019-05-19T10:02:49.814Z,9.4
2019-05-19T10:04:50.132Z,9.8
2019-05-19T10:06:50.323Z,10.6
2019-05-19T10:08:49.603Z,10.2
2019-05-19T10:10:49.538Z,10.2
2019-05-19T10:12:49.741Z,9.8
2019-05-19T10:14:49.832Z,10.2
2019-05-19T10:16:50.135Z,10.7
2019-05-19T10:18:50.111Z,10.2
2019-05-19T10:20:50.517Z,10.2
2019-05-19T10:22:49.639Z,10.8
2019-05-19T10:25:04.377Z,10.3
2019-05-19T10:26:49.944Z,10.7
2019-05-19T10:28:49.948Z,10.2
2019-05-19T10:30:49.976Z,10.2
2019-05-19T10:32:50.049Z,10.2
2019-05-19T10:34:50.421Z,10.0
2019-05-19T10:36:49.618Z,19.3
2019-05-19T10:38:49.743Z,8.8
2019-05-19T10:40:49.823Z,8.8
2019-05-19T10:42:50.056Z,9.5
2019-05-19T10:44:50.114Z,8.4
2019-05-19T10:46:50.373Z,8.9
2019-05-19T10:48:50.374Z,9.0
2019-05-19T10:50:50.359Z,9.0
2019-05-19T10:52:49.435Z,8.4
2019-05-19T10:54:50.367Z,8.3
2019-05-19T10:56:49.545Z,8.9
2019-05-19T10:58:49.631Z,8.9
2019-05-19T11:00:49.635Z,8.6
2019-05-19T11:02:49.736Z,8.8
2019-05-19T11:04:50.161Z,7.9
2019-05-19T11:06:50.237Z,7.9
2019-05-19T11:08:50.231Z,8.1
2019-05-19T11:10:50.201Z,10.1
2019-05-19T11:12:50.287Z,7.9
2019-05-19T11:14:50.328Z,7.9
2019-05-19T11:16:49.461Z,8.8
2019-05-19T11:18:49.485Z,8.8
2019-05-19T11:20:49.454Z,8.3
2019-05-19T11:22:49.585Z,8.8
2019-05-19T11:24:49.623Z,8.4
2019-05-19T11:26:49.893Z,8.4
2019-05-19T11:28:49.918Z,9.0
2019-05-19T11:30:49.952Z,8.3
2019-05-19T11:32:50.028Z,8.9
2019-05-19T11:34:50.429Z,9.0
2019-05-19T11:36:49.513Z,9.0
2019-05-19T11:38:49.571Z,9.1
2019-05-19T11:40:49.650Z,8.4
2019-05-19T11:42:49.750Z,8.4
2019-05-19T11:44:49.716Z,7.5
2019-05-19T11:46:49.850Z,7.5
2019-05-19T11:48:49.992Z,6.8
2019-05-19T11:50:50.066Z,4.9
2019-05-19T11:52:50.149Z,4.9
2019-05-19T11:54:50.236Z,6.3
2019-05-19T11:56:49.538Z,6.3
2019-05-19T11:58:49.506Z,5.6
2019-05-19T12:00:49.607Z,7.2
2019-05-19T12:02:49.587Z,6.7
2019-05-19T12:04:50.114Z,6.7
2019-05-19T12:06:50.216Z,6.7
2019-05-19T12:08:50.290Z,7.0
2019-05-19T12:10:49.438Z,7.2
2019-05-19T12:12:50.419Z,7.1
2019-05-19T12:14:49.563Z,7.1
2019-05-19T12:16:49.913Z,7.0
2019-05-19T12:18:50.362Z,6.9
2019-05-19T12:20:49.455Z,7.3
2019-05-19T12:22:49.531Z,7.5
2019-05-19T12:24:49.531Z,7.5
2019-05-19T12:26:49.660Z,7.2
2019-05-19T12:28:49.792Z,6.9
2019-05-19T12:30:49.804Z,6.0
2019-05-19T12:32:49.815Z,6.0
2019-05-19T12:34:50.196Z,6.4
2019-05-19T12:36:50.393Z,5.3
2019-05-19T12:38:49.426Z,5.6
2019-05-19T12:40:50.435Z,5.6
2019-05-19T12:42:49.522Z,6.3
2019-05-19T12:44:49.617Z,6.3
2019-05-19T12:46:49.718Z,6.8
2019-05-19T12:48:49.753Z,6.5
2019-05-19T12:50:49.779Z,6.5
2019-05-19T12:52:49.763Z,6.5
2019-05-19T12:54:49.796Z,6.8
2019-05-19T12:56:50.121Z,6.4
2019-05-19T12:58:50.173Z,5.5
2019-05-19T13:00:50.249Z,5.3
2019-05-19T13:02:50.371Z,5.5
2019-05-19T13:05:04.025Z,5.5
2019-05-19T13:06:50.206Z,5.9
2019-05-19T13:08:50.161Z,7.2
2019-05-19T13:10:50.171Z,6.7
2019-05-19T13:12:50.238Z,6.7
2019-05-19T13:14:50.379Z,7.2
2019-05-19T13:16:49.640Z,6.5
2019-05-19T13:18:49.726Z,6.1
2019-05-19T13:20:49.751Z,6.1
2019-05-19T13:22:49.828Z,6.3
2019-05-19T13:24:49.842Z,5.8
2019-05-19T13:26:56.315Z,5.9
2019-05-19T13:28:50.189Z,6.4
2019-05-19T13:30:50.265Z,7.4
2019-05-19T13:32:50.351Z,7.4
2019-05-19T13:34:50.051Z,6.3
2019-05-19T13:36:50.191Z,5.1
2019-05-19T13:38:50.198Z,5.3
2019-05-19T13:40:50.226Z,5.3
2019-05-19T13:42:50.220Z,4.8
2019-05-19T13:44:50.175Z,4.7
2019-05-19T13:46:50.437Z,4.4
2019-05-19T13:48:49.466Z,4.4
2019-05-19T13:50:49.622Z,4.2
2019-05-19T13:52:51.255Z,4.0
2019-05-19T13:54:50.456Z,4.1
2019-05-19T13:56:49.699Z,4.4
2019-05-19T13:58:49.820Z,4.4
2019-05-19T14:00:49.860Z,4.4
2019-05-19T14:02:49.935Z,4.5
2019-05-19T14:04:50.273Z,4.5
2019-05-19T14:06:49.493Z,5.3
2019-05-19T14:08:49.641Z,4.6
2019-05-19T14:10:49.713Z,4.6
2019-05-19T14:12:49.723Z,4.8
2019-05-19T14:14:49.766Z,5.1
2019-05-19T14:16:49.827Z,5.1
2019-05-19T14:18:49.924Z,4.9
2019-05-19T14:20:49.951Z,5.9
2019-05-19T14:22:50.023Z,5.9
2019-05-19T14:24:49.937Z,5.5
2019-05-19T14:26:50.165Z,5.5
2019-05-19T14:28:50.174Z,5.5
2019-05-19T14:30:50.178Z,5.7
2019-05-19T14:32:50.210Z,5.8
2019-05-19T14:34:49.558Z,5.5
2019-05-19T14:36:49.692Z,5.3
2019-05-19T14:38:49.661Z,5.7
2019-05-19T14:40:49.718Z,5.7
2019-05-19T14:42:49.736Z,5.9
2019-05-19T14:44:50.115Z,5.9
2019-05-19T14:46:50.376Z,5.8
2019-05-19T14:48:50.342Z,5.7
2019-05-19T14:50:50.282Z,5.7
2019-05-19T14:52:49.455Z,6.1
2019-05-19T14:54:49.534Z,6.2
2019-05-19T14:56:49.762Z,6.2
2019-05-19T14:58:49.912Z,5.8
2019-05-19T15:00:50.038Z,6.3
2019-05-19T15:02:50.186Z,6.5
2019-05-19T15:04:49.455Z,6.1
2019-05-19T15:06:49.746Z,6.2
2019-05-19T15:08:49.773Z,6.2
2019-05-19T15:10:49.737Z,15.4
2019-05-19T15:12:49.680Z,6.5
2019-05-19T15:14:49.702Z,6.0
2019-05-19T15:16:49.935Z,6.6
2019-05-19T15:18:50.034Z,6.6
2019-05-19T15:20:50.031Z,6.8
2019-05-19T15:22:50.090Z,6.8
2019-05-19T15:24:50.181Z,7.6
2019-05-19T15:26:50.354Z,6.4
2019-05-19T15:28:50.353Z,6.4
2019-05-19T15:30:50.367Z,6.9
2019-05-19T15:32:50.375Z,6.8
2019-05-19T15:34:49.812Z,6.9
2019-05-19T15:36:49.908Z,6.9
2019-05-19T15:38:49.912Z,6.5
2019-05-19T15:40:50.002Z,6.5
2019-05-19T15:42:50.055Z,6.7
2019-05-19T15:44:50.029Z,6.6
2019-05-19T15:46:50.178Z,6.4
2019-05-19T15:48:50.276Z,6.4
2019-05-19T15:50:50.333Z,6.4
2019-05-19T15:52:50.385Z,6.4
2019-05-19T15:54:50.332Z,6.6
2019-05-19T15:56:49.494Z,6.6
2019-05-19T15:58:49.589Z,6.5
2019-05-19T16:00:49.597Z,6.5
2019-05-19T16:02:49.698Z,6.7
2019-05-19T16:04:50.114Z,6.7
2019-05-19T16:06:50.192Z,6.8
2019-05-19T16:08:50.224Z,6.8
2019-05-19T16:10:50.219Z,6.8
2019-05-19T16:12:50.288Z,7.6
2019-05-19T16:14:50.344Z,7.6
2019-05-19T16:16:49.490Z,7.0
2019-05-19T16:18:52.682Z,7.1
2019-05-19T16:20:50.339Z,6.9
2019-05-19T16:22:50.340Z,6.7
2019-05-19T16:24:49.994Z,6.7
2019-05-19T16:26:50.276Z,6.9
2019-05-19T16:28:50.239Z,6.4
2019-05-19T16:30:50.197Z,6.9
2019-05-19T16:32:50.288Z,6.7
2019-05-19T16:34:49.753Z,6.7
2019-05-19T16:36:49.951Z,6.8
2019-05-19T16:38:49.930Z,6.8
2019-05-19T16:40:50.008Z,6.8
2019-05-19T16:42:50.022Z,6.6
2019-05-19T16:44:50.051Z,6.6
2019-05-19T16:46:50.333Z,6.4
2019-05-19T16:48:50.336Z,6.4
2019-05-19T16:50:50.361Z,7.2
2019-05-19T16:52:49.798Z,7.6
2019-05-19T16:54:49.870Z,7.6
2019-05-19T16:56:50.118Z,6.9
2019-05-19T16:58:50.109Z,7.3
2019-05-19T17:00:50.156Z,6.9
2019-05-19T17:02:50.139Z,7.4
2019-05-19T17:04:49.473Z,7.4
2019-05-19T17:06:49.737Z,6.7
2019-05-19T17:08:49.669Z,6.4
2019-05-19T17:10:49.726Z,6.8
2019-05-19T17:12:49.746Z,6.8
2019-05-19T17:14:49.812Z,7.1
2019-05-19T17:16:49.967Z,7.1
2019-05-19T17:18:49.946Z,7.3
2019-05-19T17:20:50.114Z,7.1
2019-05-19T17:22:50.085Z,7.1
2019-05-19T17:24:50.217Z,7.4
2019-05-19T17:26:49.451Z,7.2
2019-05-19T17:29:00.066Z,7.2
2019-05-19T17:30:50.261Z,7.5
2019-05-19T17:32:50.310Z,7.5
2019-05-19T17:34:49.709Z,9.2
2019-05-19T17:36:49.837Z,8.0
2019-05-19T17:38:49.822Z,7.5
2019-05-19T17:40:49.773Z,7.5
2019-05-19T17:42:49.963Z,7.0
2019-05-19T17:44:50.045Z,7.2
2019-05-19T17:46:50.248Z,6.7
2019-05-19T17:48:50.231Z,7.3
2019-05-19T17:50:50.241Z,7.9
2019-05-19T17:52:50.221Z,7.9
2019-05-19T17:54:50.278Z,8.7
2019-05-19T17:56:49.574Z,8.8
2019-05-19T17:58:49.500Z,10.0
2019-05-19T18:00:49.624Z,9.8
2019-05-19T18:02:49.662Z,9.8
2019-05-19T18:04:50.136Z,9.9
2019-05-19T18:06:50.344Z,10.1
2019-05-19T18:08:50.365Z,10.9
2019-05-19T18:10:50.374Z,10.9
2019-05-19T18:12:49.560Z,9.8
2019-05-19T18:14:49.644Z,10.5
2019-05-19T18:16:49.815Z,11.1
2019-05-19T18:18:49.843Z,11.1
2019-05-19T18:20:49.899Z,10.5
2019-05-19T18:22:49.957Z,10.2
2019-05-19T18:24:50.029Z,10.5
2019-05-19T18:26:50.227Z,10.5
2019-05-19T18:28:50.203Z,10.4
2019-05-19T18:30:50.302Z,10.4
2019-05-19T18:32:50.310Z,10.5
2019-05-19T18:34:49.743Z,10.3
2019-05-19T18:36:49.807Z,11.1
2019-05-19T18:38:49.816Z,10.6
2019-05-19T18:40:49.837Z,10.6
2019-05-19T18:42:49.869Z,10.3
2019-05-19T18:44:49.989Z,10.3
2019-05-19T18:46:49.880Z,10.8
2019-05-19T18:48:49.646Z,10.7
2019-05-19T18:50:49.709Z,10.7
2019-05-19T18:52:49.967Z,10.9
2019-05-19T18:54:50.474Z,10.7
2019-05-19T18:56:51.127Z,11.1
2019-05-19T18:58:50.300Z,10.4
2019-05-19T19:00:50.374Z,10.4
2019-05-19T19:02:49.477Z,9.9
2019-05-19T19:04:49.802Z,9.1
2019-05-19T19:06:50.086Z,9.1
2019-05-19T19:08:50.178Z,9.3
2019-05-19T19:10:50.221Z,9.1
2019-05-19T19:12:50.304Z,9.8
2019-05-19T19:14:50.386Z,9.8
2019-05-19T19:16:49.615Z,10.1
2019-05-19T19:18:49.663Z,10.1
2019-05-19T19:20:49.791Z,10.6
2019-05-19T19:22:49.925Z,11.4
2019-05-19T19:24:50.007Z,16.9
2019-05-19T19:26:49.486Z,20.9
2019-05-19T19:28:49.684Z,20.9
2019-05-19T19:30:49.860Z,26.8
2019-05-19T19:32:50.033Z,21.9
2019-05-19T19:34:49.499Z,23.3
2019-05-19T19:36:49.732Z,23.3
2019-05-19T19:38:49.894Z,17.6
2019-05-19T19:40:50.069Z,16.2
2019-05-19T19:42:50.305Z,18.3
2019-05-19T19:44:50.396Z,19.2
2019-05-19T19:46:51.386Z,15.9
2019-05-19T19:48:50.028Z,15.9
2019-05-19T19:50:50.117Z,20.7
2019-05-19T19:52:50.197Z,20.9
2019-05-19T19:54:50.378Z,20.9
2019-05-19T19:56:49.681Z,18.0
2019-05-19T19:58:49.673Z,18.0
2019-05-19T20:00:49.795Z,20.8
2019-05-19T20:02:49.908Z,20.8
2019-05-19T20:04:50.346Z,16.3
2019-05-19T20:06:49.654Z,16.2
2019-05-19T20:08:49.810Z,17.1
2019-05-19T20:10:49.887Z,17.1
2019-05-19T20:12:50.028Z,11.3
2019-05-19T20:14:50.198Z,8.4
2019-05-19T20:16:49.545Z,8.4
2019-05-19T20:18:49.719Z,8.2
2019-05-19T20:20:49.945Z,8.9
2019-05-19T20:22:50.003Z,8.9
2019-05-19T20:24:50.244Z,12.8
2019-05-19T20:26:49.442Z,12.8
2019-05-19T20:28:49.587Z,12.6
2019-05-19T20:30:49.775Z,11.9
2019-05-19T20:32:50.053Z,14.1
2019-05-19T20:34:49.756Z,13.5
2019-05-19T20:36:50.240Z,13.5
2019-05-19T20:38:50.405Z,12.6
2019-05-19T20:40:49.593Z,13.2
2019-05-19T20:42:49.682Z,13.9
2019-05-19T20:44:49.796Z,13.9
2019-05-19T20:46:50.006Z,16.3
2019-05-19T20:48:50.073Z,19.0
2019-05-19T20:50:50.173Z,16.3
2019-05-19T20:52:50.298Z,16.4
2019-05-19T20:54:50.370Z,16.4
2019-05-19T20:56:49.493Z,15.6
2019-05-19T20:58:49.520Z,17.2
2019-05-19T21:00:50.999Z,15.7
2019-05-19T21:02:50.070Z,15.7
2019-05-19T21:04:49.481Z,15.5
2019-05-19T21:06:49.808Z,14.6
2019-05-19T21:08:49.959Z,15.5
2019-05-19T21:10:50.054Z,15.5
2019-05-19T21:12:50.161Z,14.7
2019-05-19T21:14:50.142Z,14.7
2019-05-19T21:16:50.388Z,15.2
2019-05-19T21:18:49.592Z,14.4
2019-05-19T21:20:49.723Z,14.4
2019-05-19T21:22:49.798Z,14.0
2019-05-19T21:24:49.915Z,14.0
2019-05-19T21:26:50.135Z,14.2
2019-05-19T21:28:50.235Z,14.1
2019-05-19T21:31:03.394Z,15.5
2019-05-19T21:32:50.325Z,15.5
2019-05-19T21:34:50.080Z,14.2
2019-05-19T21:36:50.308Z,14.7
2019-05-19T21:38:50.432Z,15.9
2019-05-19T21:40:49.955Z,17.5
2019-05-19T21:42:50.083Z,17.6
2019-05-19T21:44:50.175Z,17.6
2019-05-19T21:46:50.435Z,17.6
2019-05-19T21:48:49.509Z,19.1
2019-05-19T21:50:49.531Z,20.7
2019-05-19T21:52:49.630Z,20.7
2019-05-19T21:54:49.720Z,22.6
2019-05-19T21:56:49.987Z,17.6
2019-05-19T21:58:50.007Z,17.7
2019-05-19T22:00:50.125Z,19.4
2019-05-19T22:02:50.204Z,19.4
2019-05-19T22:04:49.605Z,21.4
2019-05-19T22:06:50.058Z,19.3
2019-05-19T22:08:50.244Z,19.3
2019-05-19T22:10:50.370Z,20.6
2019-05-19T22:12:49.500Z,20.6
2019-05-19T22:14:49.585Z,22.1
2019-05-19T22:16:49.686Z,25.5
2019-05-19T22:18:49.726Z,24.2
2019-05-19T22:20:49.823Z,24.2
2019-05-19T22:22:50.222Z,27.9
2019-05-19T22:24:50.244Z,28.0
2019-05-19T22:26:50.372Z,26.2
2019-05-19T22:28:50.421Z,25.8
2019-05-19T22:30:49.511Z,25.8
2019-05-19T22:32:49.622Z,22.8
2019-05-19T22:34:50.137Z,23.3
2019-05-19T22:36:50.280Z,24.1
2019-05-19T22:38:50.363Z,24.1
2019-05-19T22:40:49.492Z,26.6
2019-05-19T22:42:49.579Z,24.6
2019-05-19T22:44:49.671Z,27.7
2019-05-19T22:46:49.838Z,31.8
2019-05-19T22:48:49.926Z,31.8
2019-05-19T22:50:50.063Z,29.9
2019-05-19T22:52:50.059Z,32.9
2019-05-19T22:54:50.122Z,28.3
2019-05-19T22:56:50.372Z,28.3
2019-05-19T22:58:50.381Z,29.0
2019-05-19T23:00:49.540Z,29.0
2019-05-19T23:02:49.682Z,28.4
2019-05-19T23:04:50.106Z,29.6
2019-05-19T23:06:50.277Z,26.7
2019-05-19T23:08:50.370Z,32.3
2019-05-19T23:10:50.419Z,32.3
2019-05-19T23:12:49.548Z,29.6
2019-05-19T23:14:49.698Z,29.6
2019-05-19T23:16:49.842Z,34.3
2019-05-19T23:18:49.880Z,34.3
2019-05-19T23:20:49.946Z,31.2
2019-05-19T23:22:50.010Z,32.1
2019-05-19T23:24:50.216Z,32.1
2019-05-19T23:26:50.416Z,30.0
2019-05-19T23:28:49.572Z,30.0
2019-05-19T23:30:49.531Z,31.6
2019-05-19T23:32:49.634Z,32.8
2019-05-19T23:34:49.968Z,30.2
2019-05-19T23:36:50.128Z,30.2
2019-05-19T23:38:50.324Z,24.3
2019-05-19T23:40:49.448Z,25.6
2019-05-19T23:42:49.527Z,23.1
2019-05-19T23:44:49.662Z,24.5
2019-05-19T23:46:49.801Z,24.5
2019-05-19T23:48:49.805Z,24.8
2019-05-19T23:50:49.924Z,25.5
2019-05-19T23:52:50.078Z,26.0
2019-05-19T23:54:50.144Z,25.3
2019-05-19T23:56:50.378Z,25.3
2019-05-19T23:58:50.428Z,24.2
